Arminto, Wyoming
Current Conditions -  °F | °C
As of 4:53 PM on Sunday 25 Jan 2015 (Local Time) from KCPR Reporting Station
Clear Clear  
Wind Chill: 37°   Ceiling: Unl
Heat Index: 45°   Visibility: 10mi
Dew Point: 29°   Wind: 18mph
Humidity: 53%   Direction: 240°WSW
Pressure: 30.13"   Gusts: NA
Location:  43.18°N, 107.26°W
Report Text: KCPR 252353Z 24016KT 10SM CLR 07/M02 A3013 RMK AO2 SLP200 T00721017 10089 20061 53003
Loading
Personal Weather Stations






























Interactive Weather Map New forecast layout! Learn more

10-Day Weather Forecast

Advertisements
Track Severe Weather on mobile